createdAt,value
2023-05-18T00:04:11.384Z,27.3
2023-05-18T00:09:48.216Z,27.2
2023-05-18T00:15:09.609Z,27.2
2023-05-18T00:20:31.854Z,27.2
2023-05-18T00:25:52.709Z,27.1
2023-05-18T00:31:13.336Z,27.1
2023-05-18T00:36:51.321Z,27.1
2023-05-18T00:42:26.870Z,27.1
2023-05-18T00:48:19.619Z,27.1
2023-05-18T00:54:11.211Z,27.1
2023-05-18T00:59:46.977Z,27
2023-05-18T01:05:39.560Z,27.1
2023-05-18T01:11:00.288Z,27.7
2023-05-18T01:16:52.024Z,28.4
2023-05-18T01:22:43.390Z,28.9
2023-05-18T01:28:19.851Z,29.6
2023-05-18T01:34:11.096Z,30
2023-05-18T01:39:50.086Z,30.5
2023-05-18T01:45:42.078Z,30.9
2023-05-18T01:51:18.942Z,31.4
2023-05-18T01:56:54.994Z,31.9
2023-05-18T02:02:33.185Z,32.4
2023-05-18T02:08:09.146Z,32.9
2023-05-18T02:14:00.431Z,33.3
2023-05-18T02:19:53.159Z,33.9
2023-05-18T02:25:47.461Z,34.3
2023-05-18T02:31:23.977Z,34.4
2023-05-18T02:37:16.377Z,34.5
2023-05-18T02:42:52.323Z,34.6
2023-05-18T02:48:44.928Z,34.7
2023-05-18T02:54:21.160Z,34.7
2023-05-18T03:00:14.461Z,34.8
2023-05-18T03:06:07.744Z,34.8
2023-05-18T03:12:00.057Z,34.8
2023-05-18T03:17:51.424Z,34.8
2023-05-18T03:22:58.494Z,34.8
2023-05-18T03:28:35.101Z,34.8
2023-05-18T03:34:27.128Z,34.8
2023-05-18T03:40:18.909Z,34.8
2023-05-18T03:46:10.588Z,34.7
2023-05-18T03:51:47.151Z,34.7
2023-05-18T03:57:39.519Z,34.7
2023-05-18T04:03:32.625Z,34.6
2023-05-18T04:09:26.706Z,34.6
2023-05-18T04:15:18.102Z,34.6
2023-05-18T04:21:11.284Z,34.6
2023-05-18T04:27:02.958Z,34.5
2023-05-18T04:32:54.180Z,34
2023-05-18T04:38:32.242Z,33.6
2023-05-18T04:44:23.553Z,33.5
2023-05-18T04:50:16.176Z,33.6
2023-05-18T04:55:52.998Z,33.6
2023-05-18T05:01:43.960Z,33.6
2023-05-18T05:07:39.172Z,33.6
2023-05-18T05:13:31.467Z,33.6
2023-05-18T05:19:23.264Z,33.6
2023-05-18T05:25:15.627Z,33.5
2023-05-18T05:31:08.360Z,33.4
2023-05-18T05:36:44.920Z,33.4
2023-05-18T05:42:38.782Z,33.4
2023-05-18T05:48:30.882Z,33.4
2023-05-18T05:54:22.436Z,33.3
2023-05-18T06:00:14.035Z,33.3
2023-05-18T06:06:07.268Z,33.3
2023-05-18T06:12:00.883Z,33.2
2023-05-18T06:17:53.363Z,33.2
2023-05-18T06:23:48.889Z,33.1
2023-05-18T06:29:40.178Z,33.1
2023-05-18T06:35:32.961Z,33.1
2023-05-18T06:41:10.690Z,33
2023-05-18T06:47:01.844Z,33
2023-05-18T06:52:38.159Z,32.9
2023-05-18T06:58:15.083Z,32.9
2023-05-18T07:04:06.982Z,32.9
2023-05-18T07:09:59.697Z,32.8
2023-05-18T07:15:20.018Z,32.8
2023-05-18T07:21:14.696Z,32.8
2023-05-18T07:27:06.375Z,32.7
2023-05-18T07:32:43.191Z,32.7
2023-05-18T07:38:35.503Z,32.7
2023-05-18T07:44:12.137Z,32.6
2023-05-18T07:50:05.031Z,32.6
2023-05-18T07:55:40.837Z,32.5
2023-05-18T08:01:16.720Z,32.5
2023-05-18T08:06:54.697Z,32.5
2023-05-18T08:12:30.217Z,32.4
2023-05-18T08:18:39.413Z,32.4
2023-05-18T08:24:16.298Z,32.3
2023-05-18T08:29:53.534Z,32.3
2023-05-18T08:35:30.955Z,32.3
2023-05-18T08:41:07.884Z,32.3
2023-05-18T08:46:43.715Z,32.3
2023-05-18T08:52:23.899Z,32.2
2023-05-18T08:58:00.384Z,32.2
2023-05-18T09:03:37.146Z,32.1
2023-05-18T09:09:14.159Z,32.1
2023-05-18T09:14:52.451Z,32.1
2023-05-18T09:20:29.132Z,32.1
2023-05-18T09:26:05.750Z,32
2023-05-18T09:31:44.862Z,31.9
2023-05-18T09:37:21.976Z,31.9
2023-05-18T09:42:58.180Z,31.9
2023-05-18T09:48:20.455Z,31.9
2023-05-18T09:53:40.770Z,31.9
2023-05-18T09:59:15.726Z,31.8
2023-05-18T10:04:55.918Z,31.8
2023-05-18T10:10:17.299Z,31.7
2023-05-18T10:15:22.938Z,31.7
2023-05-18T10:20:56.781Z,31.6
2023-05-18T10:26:04.094Z,31.6
2023-05-18T10:31:42.058Z,31.6
2023-05-18T10:37:39.040Z,31.5
2023-05-18T10:43:00.260Z,31.5
2023-05-18T10:48:08.907Z,31.4
2023-05-18T10:53:30.648Z,31.4
2023-05-18T10:59:49.788Z,31.4
2023-05-18T11:05:11.082Z,31.4
2023-05-18T11:10:48.187Z,31.3
2023-05-18T11:16:08.289Z,31.3
2023-05-18T11:21:45.010Z,31.3
2023-05-18T11:27:37.201Z,31.3
2023-05-18T11:33:32.085Z,31.2
2023-05-18T11:39:10.137Z,31.2
2023-05-18T11:45:02.894Z,31.2
2023-05-18T11:56:02.493Z,31.1
2023-05-18T12:01:27.018Z,31.1
2023-05-18T12:07:10.810Z,31.1
2023-05-18T12:12:47.356Z,31.1
2023-05-18T12:18:10.294Z,31
2023-05-18T12:23:45.213Z,30.9
2023-05-18T12:29:21.213Z,29.9
2023-05-18T12:34:43.338Z,28.7
2023-05-18T12:40:33.194Z,27.6
2023-05-18T12:46:12.232Z,26.6
2023-05-18T12:52:06.515Z,25.9
2023-05-18T12:57:57.721Z,25.4
2023-05-18T13:03:34.634Z,25
2023-05-18T13:09:12.298Z,24.6
2023-05-18T13:15:30.058Z,24.3
2023-05-18T13:21:25.507Z,24.1
2023-05-18T13:27:03.964Z,23.9
2023-05-18T13:32:24.463Z,23.7
2023-05-18T13:38:17.851Z,23.6
2023-05-18T13:43:38.959Z,23.4
2023-05-18T13:49:16.718Z,23.3
2023-05-18T13:54:52.971Z,23.1
2023-05-18T14:00:47.019Z,23.1
2023-05-18T14:06:40.780Z,22.9
2023-05-18T14:12:01.057Z,22.9
2023-05-18T14:17:53.356Z,22.8
2023-05-18T14:23:44.625Z,22.8
2023-05-18T14:29:36.302Z,22.7
2023-05-18T14:35:28.377Z,22.6
2023-05-18T14:41:05.826Z,22.5
2023-05-18T14:47:13.200Z,22.4
2023-05-18T14:53:07.371Z,22.3
2023-05-18T14:58:57.561Z,22.3
2023-05-18T15:04:50.775Z,22.2
2023-05-18T15:10:42.711Z,22.2
2023-05-18T15:16:17.952Z,22.1
2023-05-18T15:22:10.256Z,22.1
2023-05-18T15:28:04.000Z,22
2023-05-18T15:33:55.004Z,21.9
2023-05-18T15:39:46.514Z,21.9
2023-05-18T15:45:38.865Z,21.9
2023-05-18T15:51:14.055Z,21.8
2023-05-18T15:57:06.209Z,21.8
2023-05-18T16:02:58.907Z,21.6
2023-05-18T16:08:34.615Z,21.4
2023-05-18T16:14:13.377Z,21.3
2023-05-18T16:20:06.741Z,21.2
2023-05-18T16:31:18.994Z,21.1
2023-05-18T16:37:11.325Z,21
2023-05-18T16:43:03.473Z,20.9
2023-05-18T16:48:56.049Z,20.9
2023-05-18T16:54:51.182Z,20.8
2023-05-18T17:00:41.883Z,20.8
2023-05-18T17:06:50.341Z,20.8
2023-05-18T17:12:29.975Z,20.8
2023-05-18T17:18:06.318Z,20.7
2023-05-18T17:23:58.148Z,20.7
2023-05-18T17:30:03.910Z,20.6
2023-05-18T17:35:40.241Z,20.7
2023-05-18T17:41:31.741Z,20.6
2023-05-18T17:47:24.569Z,20.6
2023-05-18T17:53:15.990Z,20.6
2023-05-18T17:59:06.865Z,20.6
2023-05-18T18:04:45.185Z,20.5
2023-05-18T18:10:21.953Z,20.5
2023-05-18T18:16:14.086Z,20.5
2023-05-18T18:21:51.652Z,20.4
2023-05-18T18:27:42.869Z,20.4
2023-05-18T18:38:41.211Z,20.4
2023-05-18T18:44:32.799Z,20.4
2023-05-18T18:50:25.111Z,20.4
2023-05-18T18:56:17.014Z,20.5
2023-05-18T19:01:52.229Z,20.4
2023-05-18T19:07:44.887Z,20.4
2023-05-18T19:13:21.672Z,20.3
2023-05-18T19:19:14.276Z,20.3
2023-05-18T19:25:06.499Z,20.3
2023-05-18T19:30:58.736Z,20.4
2023-05-18T19:36:51.617Z,20.5
2023-05-18T19:42:30.265Z,20.8
2023-05-18T19:48:23.672Z,21.2
2023-05-18T19:54:14.305Z,21.7
2023-05-18T20:00:05.931Z,22.3
2023-05-18T20:05:43.891Z,22.9
2023-05-18T20:11:35.281Z,23.4
2023-05-18T20:17:27.300Z,24.1
2023-05-18T20:23:04.715Z,24.6
2023-05-18T20:28:42.945Z,24.9
2023-05-18T20:34:04.495Z,25.2
2023-05-18T20:39:41.390Z,25.4
2023-05-18T20:45:17.168Z,25.6
2023-05-18T20:51:09.686Z,25.7
2023-05-18T20:57:01.549Z,25.8
2023-05-18T21:02:53.247Z,25.9
2023-05-18T21:08:33.566Z,26
2023-05-18T21:13:55.316Z,26.1
2023-05-18T21:19:46.881Z,26.1
2023-05-18T21:25:38.202Z,26.1
2023-05-18T21:31:30.687Z,26.1
2023-05-18T21:37:22.357Z,26.2
2023-05-18T21:42:59.279Z,26.2
2023-05-18T21:48:23.116Z,26.2
2023-05-18T21:53:59.066Z,26.3
2023-05-18T21:59:36.377Z,26.3
2023-05-18T22:05:28.873Z,26.3
2023-05-18T22:11:20.209Z,26.3
2023-05-18T22:16:40.519Z,26.3
2023-05-18T22:22:29.040Z,26.3
2023-05-18T22:28:04.350Z,26.3
2023-05-18T22:33:41.382Z,26.2
2023-05-18T22:39:17.201Z,26.3
2023-05-18T22:44:52.421Z,26.2
2023-05-18T22:50:44.597Z,26.2
2023-05-18T22:56:21.029Z,26.2
2023-05-18T23:01:56.976Z,26.2
2023-05-18T23:07:33.637Z,26.1
2023-05-18T23:13:25.065Z,26.1
2023-05-18T23:19:16.902Z,26.1
2023-05-18T23:25:08.533Z,26.1
2023-05-18T23:31:00.614Z,26.1
2023-05-18T23:36:53.032Z,26.1
2023-05-18T23:42:45.071Z,26.1
2023-05-18T23:48:37.335Z,26.1
2023-05-18T23:54:28.859Z,26.1
